sensor_id;sensor_type;location;lat;lon;timestamp;P1;durP1;ratioP1;P2;durP2;ratioP2
12511;SDS011;6321;53.798;10.382;2022-11-20T00:00:53;3.80;;;2.83;;
12511;SDS011;6321;53.798;10.382;2022-11-20T00:03:19;3.00;;;2.70;;
12511;SDS011;6321;53.798;10.382;2022-11-20T00:05:45;6.67;;;3.33;;
12511;SDS011;6321;53.798;10.382;2022-11-20T00:08:11;4.37;;;2.67;;
12511;SDS011;6321;53.798;10.382;2022-11-20T00:10:38;5.07;;;2.93;;
12511;SDS011;6321;53.798;10.382;2022-11-20T00:13:04;5.70;;;3.07;;
12511;SDS011;6321;53.798;10.382;2022-11-20T00:15:30;5.00;;;3.30;;
12511;SDS011;6321;53.798;10.382;2022-11-20T00:17:56;4.37;;;2.97;;
12511;SDS011;6321;53.798;10.382;2022-11-20T00:20:22;4.43;;;3.63;;
12511;SDS011;6321;53.798;10.382;2022-11-20T00:22:48;5.30;;;3.30;;
12511;SDS011;6321;53.798;10.382;2022-11-20T00:25:14;3.60;;;2.87;;
12511;SDS011;6321;53.798;10.382;2022-11-20T00:27:40;5.47;;;3.40;;
12511;SDS011;6321;53.798;10.382;2022-11-20T00:30:06;5.10;;;3.07;;
12511;SDS011;6321;53.798;10.382;2022-11-20T00:32:33;4.10;;;3.00;;
12511;SDS011;6321;53.798;10.382;2022-11-20T00:34:58;6.07;;;3.87;;
12511;SDS011;6321;53.798;10.382;2022-11-20T00:37:24;9.90;;;3.63;;
12511;SDS011;6321;53.798;10.382;2022-11-20T00:39:50;4.40;;;3.27;;
12511;SDS011;6321;53.798;10.382;2022-11-20T00:42:16;4.20;;;3.27;;
12511;SDS011;6321;53.798;10.382;2022-11-20T00:44:42;5.00;;;2.93;;
12511;SDS011;6321;53.798;10.382;2022-11-20T00:47:08;5.20;;;3.30;;
12511;SDS011;6321;53.798;10.382;2022-11-20T00:49:34;4.30;;;3.07;;
12511;SDS011;6321;53.798;10.382;2022-11-20T00:52:00;4.33;;;3.20;;
12511;SDS011;6321;53.798;10.382;2022-11-20T00:54:26;5.70;;;3.40;;
12511;SDS011;6321;53.798;10.382;2022-11-20T00:56:52;6.67;;;2.80;;
12511;SDS011;6321;53.798;10.382;2022-11-20T00:59:18;3.37;;;2.57;;
12511;SDS011;6321;53.798;10.382;2022-11-20T01:01:44;4.63;;;3.23;;
12511;SDS011;6321;53.798;10.382;2022-11-20T01:04:10;4.37;;;3.23;;
12511;SDS011;6321;53.798;10.382;2022-11-20T01:06:37;6.83;;;3.80;;
12511;SDS011;6321;53.798;10.382;2022-11-20T01:09:04;7.10;;;3.43;;
12511;SDS011;6321;53.798;10.382;2022-11-20T01:11:31;6.33;;;3.20;;
12511;SDS011;6321;53.798;10.382;2022-11-20T01:13:58;3.53;;;2.90;;
12511;SDS011;6321;53.798;10.382;2022-11-20T01:16:25;7.03;;;3.50;;
12511;SDS011;6321;53.798;10.382;2022-11-20T01:18:52;4.30;;;3.00;;
12511;SDS011;6321;53.798;10.382;2022-11-20T01:21:22;4.93;;;2.70;;
12511;SDS011;6321;53.798;10.382;2022-11-20T01:23:48;4.73;;;3.30;;
12511;SDS011;6321;53.798;10.382;2022-11-20T01:26:16;3.00;;;2.40;;
12511;SDS011;6321;53.798;10.382;2022-11-20T01:28:42;6.33;;;3.20;;
12511;SDS011;6321;53.798;10.382;2022-11-20T01:31:15;3.90;;;3.07;;
12511;SDS011;6321;53.798;10.382;2022-11-20T01:33:42;6.07;;;3.17;;
12511;SDS011;6321;53.798;10.382;2022-11-20T01:36:09;4.50;;;3.47;;
12511;SDS011;6321;53.798;10.382;2022-11-20T01:38:35;5.27;;;3.43;;
12511;SDS011;6321;53.798;10.382;2022-11-20T01:41:01;4.00;;;2.80;;
12511;SDS011;6321;53.798;10.382;2022-11-20T01:43:27;6.57;;;3.63;;
12511;SDS011;6321;53.798;10.382;2022-11-20T01:48:22;3.57;;;2.80;;
12511;SDS011;6321;53.798;10.382;2022-11-20T01:50:49;6.77;;;3.30;;
12511;SDS011;6321;53.798;10.382;2022-11-20T01:53:16;4.83;;;3.00;;
12511;SDS011;6321;53.798;10.382;2022-11-20T01:55:46;3.47;;;2.90;;
12511;SDS011;6321;53.798;10.382;2022-11-20T01:58:14;4.67;;;3.43;;
12511;SDS011;6321;53.798;10.382;2022-11-20T02:00:41;4.30;;;3.53;;
12511;SDS011;6321;53.798;10.382;2022-11-20T02:03:08;3.40;;;2.87;;
12511;SDS011;6321;53.798;10.382;2022-11-20T02:08:19;4.17;;;3.37;;
12511;SDS011;6321;53.798;10.382;2022-11-20T02:10:45;6.47;;;3.33;;
12511;SDS011;6321;53.798;10.382;2022-11-20T02:13:11;5.90;;;3.60;;
12511;SDS011;6321;53.798;10.382;2022-11-20T02:15:56;5.83;;;3.60;;
12511;SDS011;6321;53.798;10.382;2022-11-20T02:18:22;4.57;;;3.03;;
12511;SDS011;6321;53.798;10.382;2022-11-20T02:20:50;4.40;;;3.73;;
12511;SDS011;6321;53.798;10.382;2022-11-20T02:23:21;4.93;;;3.20;;
12511;SDS011;6321;53.798;10.382;2022-11-20T02:25:49;5.27;;;3.90;;
12511;SDS011;6321;53.798;10.382;2022-11-20T02:28:16;5.97;;;4.03;;
12511;SDS011;6321;53.798;10.382;2022-11-20T02:30:43;3.47;;;3.07;;
12511;SDS011;6321;53.798;10.382;2022-11-20T02:33:09;4.10;;;3.50;;
12511;SDS011;6321;53.798;10.382;2022-11-20T02:38:01;5.40;;;3.13;;
12511;SDS011;6321;53.798;10.382;2022-11-20T02:40:28;5.10;;;3.50;;
12511;SDS011;6321;53.798;10.382;2022-11-20T02:42:54;7.10;;;3.63;;
12511;SDS011;6321;53.798;10.382;2022-11-20T02:45:21;5.37;;;3.43;;
12511;SDS011;6321;53.798;10.382;2022-11-20T02:47:47;5.50;;;4.07;;
12511;SDS011;6321;53.798;10.382;2022-11-20T02:50:13;10.50;;;4.10;;
12511;SDS011;6321;53.798;10.382;2022-11-20T02:52:39;6.23;;;3.90;;
12511;SDS011;6321;53.798;10.382;2022-11-20T02:55:05;3.70;;;2.90;;
12511;SDS011;6321;53.798;10.382;2022-11-20T02:57:32;7.57;;;3.90;;
12511;SDS011;6321;53.798;10.382;2022-11-20T02:59:58;3.60;;;3.20;;
12511;SDS011;6321;53.798;10.382;2022-11-20T03:02:23;4.73;;;3.60;;
12511;SDS011;6321;53.798;10.382;2022-11-20T03:04:49;4.43;;;3.27;;
12511;SDS011;6321;53.798;10.382;2022-11-20T03:07:15;6.97;;;3.80;;
12511;SDS011;6321;53.798;10.382;2022-11-20T03:09:41;5.00;;;3.40;;
12511;SDS011;6321;53.798;10.382;2022-11-20T03:12:07;7.97;;;3.03;;
12511;SDS011;6321;53.798;10.382;2022-11-20T03:14:34;3.50;;;3.20;;
12511;SDS011;6321;53.798;10.382;2022-11-20T03:17:00;6.90;;;3.70;;
12511;SDS011;6321;53.798;10.382;2022-11-20T03:19:25;5.63;;;3.80;;
12511;SDS011;6321;53.798;10.382;2022-11-20T03:21:51;3.57;;;2.87;;
12511;SDS011;6321;53.798;10.382;2022-11-20T03:24:17;5.13;;;3.57;;
12511;SDS011;6321;53.798;10.382;2022-11-20T03:26:43;7.67;;;3.37;;
12511;SDS011;6321;53.798;10.382;2022-11-20T03:29:09;6.17;;;3.53;;
12511;SDS011;6321;53.798;10.382;2022-11-20T03:31:36;6.10;;;3.50;;
12511;SDS011;6321;53.798;10.382;2022-11-20T03:34:03;5.40;;;3.60;;
12511;SDS011;6321;53.798;10.382;2022-11-20T03:36:29;3.90;;;3.13;;
12511;SDS011;6321;53.798;10.382;2022-11-20T03:38:55;4.00;;;3.30;;
12511;SDS011;6321;53.798;10.382;2022-11-20T03:41:23;5.20;;;3.37;;
12511;SDS011;6321;53.798;10.382;2022-11-20T03:43:50;5.97;;;3.53;;
12511;SDS011;6321;53.798;10.382;2022-11-20T03:46:16;5.07;;;3.57;;
12511;SDS011;6321;53.798;10.382;2022-11-20T03:48:42;5.37;;;3.50;;
12511;SDS011;6321;53.798;10.382;2022-11-20T03:53:34;4.63;;;3.20;;
12511;SDS011;6321;53.798;10.382;2022-11-20T03:56:00;3.93;;;3.43;;
12511;SDS011;6321;53.798;10.382;2022-11-20T03:58:26;5.97;;;3.27;;
12511;SDS011;6321;53.798;10.382;2022-11-20T04:00:52;4.43;;;3.43;;
12511;SDS011;6321;53.798;10.382;2022-11-20T04:03:18;5.47;;;3.37;;
12511;SDS011;6321;53.798;10.382;2022-11-20T04:05:44;7.20;;;3.97;;
12511;SDS011;6321;53.798;10.382;2022-11-20T04:08:09;6.40;;;3.20;;
12511;SDS011;6321;53.798;10.382;2022-11-20T04:10:35;5.50;;;3.80;;
12511;SDS011;6321;53.798;10.382;2022-11-20T04:13:02;7.80;;;3.37;;
12511;SDS011;6321;53.798;10.382;2022-11-20T04:15:28;6.47;;;3.83;;
12511;SDS011;6321;53.798;10.382;2022-11-20T04:17:54;4.70;;;3.43;;
12511;SDS011;6321;53.798;10.382;2022-11-20T04:20:20;3.97;;;3.07;;
12511;SDS011;6321;53.798;10.382;2022-11-20T04:22:46;4.50;;;3.57;;
12511;SDS011;6321;53.798;10.382;2022-11-20T04:25:12;5.80;;;3.23;;
12511;SDS011;6321;53.798;10.382;2022-11-20T04:27:38;4.93;;;3.47;;
12511;SDS011;6321;53.798;10.382;2022-11-20T04:30:04;4.10;;;3.47;;
12511;SDS011;6321;53.798;10.382;2022-11-20T04:32:30;4.23;;;3.57;;
12511;SDS011;6321;53.798;10.382;2022-11-20T04:34:56;6.67;;;3.93;;
12511;SDS011;6321;53.798;10.382;2022-11-20T04:37:22;5.27;;;3.37;;
12511;SDS011;6321;53.798;10.382;2022-11-20T04:39:48;5.77;;;3.90;;
12511;SDS011;6321;53.798;10.382;2022-11-20T04:42:14;3.40;;;2.97;;
12511;SDS011;6321;53.798;10.382;2022-11-20T04:44:55;4.60;;;3.47;;
12511;SDS011;6321;53.798;10.382;2022-11-20T04:47:21;4.53;;;3.50;;
12511;SDS011;6321;53.798;10.382;2022-11-20T04:49:47;4.90;;;3.43;;
12511;SDS011;6321;53.798;10.382;2022-11-20T04:52:13;5.90;;;3.67;;
12511;SDS011;6321;53.798;10.382;2022-11-20T04:54:39;4.47;;;3.20;;
12511;SDS011;6321;53.798;10.382;2022-11-20T04:57:05;6.23;;;3.07;;
12511;SDS011;6321;53.798;10.382;2022-11-20T04:59:31;5.33;;;3.47;;
12511;SDS011;6321;53.798;10.382;2022-11-20T05:01:57;4.37;;;3.20;;
12511;SDS011;6321;53.798;10.382;2022-11-20T05:04:23;4.40;;;3.17;;
12511;SDS011;6321;53.798;10.382;2022-11-20T05:06:49;5.27;;;3.40;;
12511;SDS011;6321;53.798;10.382;2022-11-20T05:09:15;3.47;;;2.77;;
12511;SDS011;6321;53.798;10.382;2022-11-20T05:11:41;4.80;;;3.23;;
12511;SDS011;6321;53.798;10.382;2022-11-20T05:14:07;5.00;;;3.27;;
12511;SDS011;6321;53.798;10.382;2022-11-20T05:16:33;4.40;;;3.10;;
12511;SDS011;6321;53.798;10.382;2022-11-20T05:19:00;4.50;;;3.30;;
12511;SDS011;6321;53.798;10.382;2022-11-20T05:21:26;5.70;;;3.30;;
12511;SDS011;6321;53.798;10.382;2022-11-20T05:23:52;4.27;;;3.23;;
12511;SDS011;6321;53.798;10.382;2022-11-20T05:26:19;3.40;;;2.73;;
12511;SDS011;6321;53.798;10.382;2022-11-20T05:28:46;5.73;;;3.77;;
12511;SDS011;6321;53.798;10.382;2022-11-20T05:31:13;4.30;;;3.23;;
12511;SDS011;6321;53.798;10.382;2022-11-20T05:33:40;5.70;;;3.50;;
12511;SDS011;6321;53.798;10.382;2022-11-20T05:36:07;7.37;;;3.63;;
12511;SDS011;6321;53.798;10.382;2022-11-20T05:38:34;5.03;;;3.63;;
12511;SDS011;6321;53.798;10.382;2022-11-20T05:41:06;6.13;;;3.40;;
12511;SDS011;6321;53.798;10.382;2022-11-20T05:43:33;4.00;;;2.40;;
12511;SDS011;6321;53.798;10.382;2022-11-20T05:45:59;5.90;;;3.37;;
12511;SDS011;6321;53.798;10.382;2022-11-20T05:48:25;4.07;;;3.53;;
12511;SDS011;6321;53.798;10.382;2022-11-20T05:50:51;4.50;;;3.57;;
12511;SDS011;6321;53.798;10.382;2022-11-20T05:53:17;4.17;;;3.37;;
12511;SDS011;6321;53.798;10.382;2022-11-20T05:55:43;6.00;;;3.83;;
12511;SDS011;6321;53.798;10.382;2022-11-20T05:58:09;9.77;;;3.90;;
12511;SDS011;6321;53.798;10.382;2022-11-20T06:00:35;4.40;;;3.47;;
12511;SDS011;6321;53.798;10.382;2022-11-20T06:03:01;5.37;;;4.07;;
12511;SDS011;6321;53.798;10.382;2022-11-20T06:05:27;5.80;;;3.77;;
12511;SDS011;6321;53.798;10.382;2022-11-20T06:07:53;5.87;;;3.83;;
12511;SDS011;6321;53.798;10.382;2022-11-20T06:10:19;6.30;;;3.63;;
12511;SDS011;6321;53.798;10.382;2022-11-20T06:12:45;4.73;;;3.47;;
12511;SDS011;6321;53.798;10.382;2022-11-20T06:15:11;6.53;;;4.07;;
12511;SDS011;6321;53.798;10.382;2022-11-20T06:17:36;6.47;;;3.80;;
12511;SDS011;6321;53.798;10.382;2022-11-20T06:20:02;6.70;;;4.43;;
12511;SDS011;6321;53.798;10.382;2022-11-20T06:22:28;9.30;;;4.10;;
12511;SDS011;6321;53.798;10.382;2022-11-20T06:24:54;6.37;;;4.23;;
12511;SDS011;6321;53.798;10.382;2022-11-20T06:27:20;5.13;;;4.17;;
12511;SDS011;6321;53.798;10.382;2022-11-20T06:29:46;5.07;;;4.10;;
12511;SDS011;6321;53.798;10.382;2022-11-20T06:32:12;7.70;;;4.40;;
12511;SDS011;6321;53.798;10.382;2022-11-20T06:34:38;4.90;;;3.80;;
12511;SDS011;6321;53.798;10.382;2022-11-20T06:37:04;6.70;;;3.70;;
12511;SDS011;6321;53.798;10.382;2022-11-20T06:39:30;5.07;;;3.60;;
12511;SDS011;6321;53.798;10.382;2022-11-20T06:41:56;5.50;;;3.97;;
12511;SDS011;6321;53.798;10.382;2022-11-20T06:44:22;5.37;;;3.77;;
12511;SDS011;6321;53.798;10.382;2022-11-20T06:46:48;5.27;;;3.50;;
12511;SDS011;6321;53.798;10.382;2022-11-20T06:49:14;7.20;;;4.50;;
12511;SDS011;6321;53.798;10.382;2022-11-20T06:51:39;4.33;;;3.60;;
12511;SDS011;6321;53.798;10.382;2022-11-20T06:54:05;5.70;;;4.07;;
12511;SDS011;6321;53.798;10.382;2022-11-20T06:56:31;5.93;;;3.87;;
12511;SDS011;6321;53.798;10.382;2022-11-20T06:58:57;6.17;;;4.17;;
12511;SDS011;6321;53.798;10.382;2022-11-20T07:01:23;7.40;;;4.53;;
12511;SDS011;6321;53.798;10.382;2022-11-20T07:03:50;5.63;;;4.00;;
12511;SDS011;6321;53.798;10.382;2022-11-20T07:06:16;5.13;;;3.87;;
12511;SDS011;6321;53.798;10.382;2022-11-20T07:08:42;6.17;;;4.27;;
12511;SDS011;6321;53.798;10.382;2022-11-20T07:11:11;5.23;;;3.73;;
12511;SDS011;6321;53.798;10.382;2022-11-20T07:13:37;6.10;;;4.20;;
12511;SDS011;6321;53.798;10.382;2022-11-20T07:16:04;4.57;;;3.70;;
12511;SDS011;6321;53.798;10.382;2022-11-20T07:18:31;6.13;;;3.90;;
12511;SDS011;6321;53.798;10.382;2022-11-20T07:21:07;7.17;;;3.70;;
12511;SDS011;6321;53.798;10.382;2022-11-20T07:23:33;4.80;;;3.57;;
12511;SDS011;6321;53.798;10.382;2022-11-20T07:26:03;5.20;;;3.80;;
12511;SDS011;6321;53.798;10.382;2022-11-20T07:28:29;7.87;;;4.30;;
12511;SDS011;6321;53.798;10.382;2022-11-20T07:30:55;5.53;;;4.00;;
12511;SDS011;6321;53.798;10.382;2022-11-20T07:33:21;7.40;;;4.13;;
12511;SDS011;6321;53.798;10.382;2022-11-20T07:35:47;5.90;;;4.37;;
12511;SDS011;6321;53.798;10.382;2022-11-20T07:38:13;7.63;;;4.10;;
12511;SDS011;6321;53.798;10.382;2022-11-20T07:40:39;7.10;;;4.47;;
12511;SDS011;6321;53.798;10.382;2022-11-20T07:43:04;7.27;;;4.57;;
12511;SDS011;6321;53.798;10.382;2022-11-20T07:45:30;7.20;;;4.17;;
12511;SDS011;6321;53.798;10.382;2022-11-20T07:47:56;5.87;;;4.27;;
12511;SDS011;6321;53.798;10.382;2022-11-20T07:50:22;5.27;;;4.03;;
12511;SDS011;6321;53.798;10.382;2022-11-20T07:52:48;5.33;;;4.07;;
12511;SDS011;6321;53.798;10.382;2022-11-20T07:55:14;5.70;;;4.20;;
12511;SDS011;6321;53.798;10.382;2022-11-20T07:57:40;6.40;;;3.90;;
12511;SDS011;6321;53.798;10.382;2022-11-20T08:00:07;5.40;;;3.83;;
12511;SDS011;6321;53.798;10.382;2022-11-20T08:02:34;5.83;;;4.33;;
12511;SDS011;6321;53.798;10.382;2022-11-20T08:05:02;5.43;;;3.97;;
12511;SDS011;6321;53.798;10.382;2022-11-20T08:07:28;9.33;;;4.13;;
12511;SDS011;6321;53.798;10.382;2022-11-20T08:09:53;5.30;;;3.53;;
12511;SDS011;6321;53.798;10.382;2022-11-20T08:12:20;5.03;;;4.17;;
12511;SDS011;6321;53.798;10.382;2022-11-20T08:15:05;6.67;;;4.00;;
12511;SDS011;6321;53.798;10.382;2022-11-20T08:17:31;8.93;;;4.90;;
12511;SDS011;6321;53.798;10.382;2022-11-20T08:19:58;4.03;;;3.50;;
12511;SDS011;6321;53.798;10.382;2022-11-20T08:22:23;5.20;;;4.43;;
12511;SDS011;6321;53.798;10.382;2022-11-20T08:24:50;5.77;;;4.07;;
12511;SDS011;6321;53.798;10.382;2022-11-20T08:27:16;6.77;;;4.47;;
12511;SDS011;6321;53.798;10.382;2022-11-20T08:29:42;4.43;;;3.27;;
12511;SDS011;6321;53.798;10.382;2022-11-20T08:32:08;7.07;;;4.17;;
12511;SDS011;6321;53.798;10.382;2022-11-20T08:34:33;6.23;;;4.50;;
12511;SDS011;6321;53.798;10.382;2022-11-20T08:37:01;5.43;;;3.57;;
12511;SDS011;6321;53.798;10.382;2022-11-20T08:39:27;5.40;;;3.93;;
12511;SDS011;6321;53.798;10.382;2022-11-20T08:41:53;5.77;;;4.57;;
12511;SDS011;6321;53.798;10.382;2022-11-20T08:44:18;6.40;;;4.07;;
12511;SDS011;6321;53.798;10.382;2022-11-20T08:46:44;7.43;;;5.00;;
12511;SDS011;6321;53.798;10.382;2022-11-20T08:49:12;5.67;;;4.37;;
12511;SDS011;6321;53.798;10.382;2022-11-20T08:51:38;7.03;;;4.40;;
12511;SDS011;6321;53.798;10.382;2022-11-20T08:54:05;4.73;;;3.60;;
12511;SDS011;6321;53.798;10.382;2022-11-20T08:56:31;6.40;;;4.23;;
12511;SDS011;6321;53.798;10.382;2022-11-20T08:58:57;8.47;;;3.87;;
12511;SDS011;6321;53.798;10.382;2022-11-20T09:01:24;6.90;;;4.60;;
12511;SDS011;6321;53.798;10.382;2022-11-20T09:03:50;5.00;;;4.00;;
12511;SDS011;6321;53.798;10.382;2022-11-20T09:06:16;5.77;;;3.80;;
12511;SDS011;6321;53.798;10.382;2022-11-20T09:08:42;4.97;;;3.60;;
12511;SDS011;6321;53.798;10.382;2022-11-20T09:11:08;6.20;;;4.17;;
12511;SDS011;6321;53.798;10.382;2022-11-20T09:13:35;6.13;;;3.80;;
12511;SDS011;6321;53.798;10.382;2022-11-20T09:16:02;5.80;;;4.40;;
12511;SDS011;6321;53.798;10.382;2022-11-20T09:18:28;5.77;;;4.00;;
12511;SDS011;6321;53.798;10.382;2022-11-20T09:20:57;5.90;;;3.83;;
12511;SDS011;6321;53.798;10.382;2022-11-20T09:23:23;6.30;;;4.27;;
12511;SDS011;6321;53.798;10.382;2022-11-20T09:25:49;6.77;;;4.77;;
12511;SDS011;6321;53.798;10.382;2022-11-20T09:28:15;8.00;;;4.83;;
12511;SDS011;6321;53.798;10.382;2022-11-20T09:30:43;9.67;;;5.27;;
12511;SDS011;6321;53.798;10.382;2022-11-20T09:33:09;5.93;;;3.67;;
12511;SDS011;6321;53.798;10.382;2022-11-20T09:35:35;7.37;;;5.07;;
12511;SDS011;6321;53.798;10.382;2022-11-20T09:38:04;7.63;;;4.47;;
12511;SDS011;6321;53.798;10.382;2022-11-20T09:40:31;6.53;;;4.67;;
12511;SDS011;6321;53.798;10.382;2022-11-20T09:50:55;6.90;;;4.37;;
12511;SDS011;6321;53.798;10.382;2022-11-20T09:55:50;6.27;;;3.40;;
12511;SDS011;6321;53.798;10.382;2022-11-20T09:58:25;7.13;;;4.50;;
12511;SDS011;6321;53.798;10.382;2022-11-20T10:00:54;7.67;;;4.73;;
12511;SDS011;6321;53.798;10.382;2022-11-20T10:03:29;6.50;;;4.83;;
12511;SDS011;6321;53.798;10.382;2022-11-20T10:05:57;5.23;;;3.67;;
12511;SDS011;6321;53.798;10.382;2022-11-20T10:08:27;6.83;;;4.93;;
12511;SDS011;6321;53.798;10.382;2022-11-20T10:11:13;6.30;;;4.53;;
12511;SDS011;6321;53.798;10.382;2022-11-20T10:16:41;5.70;;;4.03;;
12511;SDS011;6321;53.798;10.382;2022-11-20T10:19:20;6.30;;;4.30;;
12511;SDS011;6321;53.798;10.382;2022-11-20T10:28:14;10.93;;;4.90;;
12511;SDS011;6321;53.798;10.382;2022-11-20T10:30:42;5.63;;;4.23;;
12511;SDS011;6321;53.798;10.382;2022-11-20T10:35:42;6.20;;;4.13;;
12511;SDS011;6321;53.798;10.382;2022-11-20T10:38:12;8.23;;;4.53;;
12511;SDS011;6321;53.798;10.382;2022-11-20T10:40:48;5.50;;;4.03;;
12511;SDS011;6321;53.798;10.382;2022-11-20T10:43:19;5.97;;;4.40;;
12511;SDS011;6321;53.798;10.382;2022-11-20T10:45:52;5.33;;;4.10;;
12511;SDS011;6321;53.798;10.382;2022-11-20T10:50:49;5.50;;;4.03;;
12511;SDS011;6321;53.798;10.382;2022-11-20T10:53:31;5.37;;;3.57;;
12511;SDS011;6321;53.798;10.382;2022-11-20T10:56:05;4.40;;;3.20;;
12511;SDS011;6321;53.798;10.382;2022-11-20T11:01:05;3.77;;;3.03;;
12511;SDS011;6321;53.798;10.382;2022-11-20T11:03:31;5.40;;;2.90;;
12511;SDS011;6321;53.798;10.382;2022-11-20T11:06:06;4.43;;;2.83;;
12511;SDS011;6321;53.798;10.382;2022-11-20T11:08:39;4.57;;;3.60;;
12511;SDS011;6321;53.798;10.382;2022-11-20T11:11:20;4.50;;;3.87;;
12511;SDS011;6321;53.798;10.382;2022-11-20T11:13:47;3.93;;;2.97;;
12511;SDS011;6321;53.798;10.382;2022-11-20T11:16:23;3.67;;;3.03;;
12511;SDS011;6321;53.798;10.382;2022-11-20T11:18:49;4.83;;;3.33;;
12511;SDS011;6321;53.798;10.382;2022-11-20T11:21:22;3.87;;;3.10;;
12511;SDS011;6321;53.798;10.382;2022-11-20T11:23:56;5.60;;;3.87;;
12511;SDS011;6321;53.798;10.382;2022-11-20T11:26:23;3.90;;;3.23;;
12511;SDS011;6321;53.798;10.382;2022-11-20T11:28:56;4.00;;;3.27;;
12511;SDS011;6321;53.798;10.382;2022-11-20T11:31:24;5.80;;;3.47;;
12511;SDS011;6321;53.798;10.382;2022-11-20T11:33:50;6.13;;;3.30;;
12511;SDS011;6321;53.798;10.382;2022-11-20T11:36:17;6.17;;;3.80;;
12511;SDS011;6321;53.798;10.382;2022-11-20T11:38:43;4.77;;;3.50;;
12511;SDS011;6321;53.798;10.382;2022-11-20T11:41:12;5.40;;;4.03;;
12511;SDS011;6321;53.798;10.382;2022-11-20T11:43:48;4.27;;;3.60;;
12511;SDS011;6321;53.798;10.382;2022-11-20T11:46:34;4.50;;;3.83;;
12511;SDS011;6321;53.798;10.382;2022-11-20T11:54:03;4.63;;;3.07;;
12511;SDS011;6321;53.798;10.382;2022-11-20T11:56:30;4.73;;;3.30;;
12511;SDS011;6321;53.798;10.382;2022-11-20T11:59:00;6.38;;;3.28;;
12511;SDS011;6321;53.798;10.382;2022-11-20T12:06:42;5.13;;;3.63;;
12511;SDS011;6321;53.798;10.382;2022-11-20T12:09:09;4.00;;;3.27;;
12511;SDS011;6321;53.798;10.382;2022-11-20T12:12:18;4.40;;;3.17;;
12511;SDS011;6321;53.798;10.382;2022-11-20T12:14:28;3.90;;;3.17;;
12511;SDS011;6321;53.798;10.382;2022-11-20T12:16:55;4.00;;;3.37;;
12511;SDS011;6321;53.798;10.382;2022-11-20T12:19:22;4.57;;;3.00;;
12511;SDS011;6321;53.798;10.382;2022-11-20T12:24:52;3.33;;;2.97;;
12511;SDS011;6321;53.798;10.382;2022-11-20T12:27:28;3.80;;;3.40;;
12511;SDS011;6321;53.798;10.382;2022-11-20T12:30:17;2.90;;;2.33;;
12511;SDS011;6321;53.798;10.382;2022-11-20T12:35:21;3.50;;;3.20;;
12511;SDS011;6321;53.798;10.382;2022-11-20T12:40:28;4.13;;;2.97;;
12511;SDS011;6321;53.798;10.382;2022-11-20T12:44:01;3.10;;;2.33;;
12511;SDS011;6321;53.798;10.382;2022-11-20T12:46:18;5.73;;;2.33;;
12511;SDS011;6321;53.798;10.382;2022-11-20T12:51:34;2.80;;;2.60;;
12511;SDS011;6321;53.798;10.382;2022-11-20T12:56:50;2.70;;;2.20;;
12511;SDS011;6321;53.798;10.382;2022-11-20T12:59:33;3.33;;;2.37;;
12511;SDS011;6321;53.798;10.382;2022-11-20T13:02:11;2.73;;;2.27;;
12511;SDS011;6321;53.798;10.382;2022-11-20T13:07:15;5.63;;;2.57;;
12511;SDS011;6321;53.798;10.382;2022-11-20T13:09:44;2.90;;;2.50;;
12511;SDS011;6321;53.798;10.382;2022-11-20T13:12:12;3.03;;;2.37;;
12511;SDS011;6321;53.798;10.382;2022-11-20T13:14:42;3.67;;;2.73;;
12511;SDS011;6321;53.798;10.382;2022-11-20T13:19:34;4.43;;;3.33;;
12511;SDS011;6321;53.798;10.382;2022-11-20T13:22:00;6.57;;;3.20;;
12511;SDS011;6321;53.798;10.382;2022-11-20T13:24:27;3.83;;;3.23;;
12511;SDS011;6321;53.798;10.382;2022-11-20T13:29:27;4.50;;;2.93;;
12511;SDS011;6321;53.798;10.382;2022-11-20T13:32:01;2.63;;;2.23;;
12511;SDS011;6321;53.798;10.382;2022-11-20T13:34:27;3.73;;;2.53;;
12511;SDS011;6321;53.798;10.382;2022-11-20T13:36:55;4.33;;;2.90;;
12511;SDS011;6321;53.798;10.382;2022-11-20T13:39:25;3.10;;;2.80;;
12511;SDS011;6321;53.798;10.382;2022-11-20T13:42:34;3.23;;;2.90;;
12511;SDS011;6321;53.798;10.382;2022-11-20T13:45:00;4.23;;;2.30;;
12511;SDS011;6321;53.798;10.382;2022-11-20T13:47:27;2.37;;;2.17;;
12511;SDS011;6321;53.798;10.382;2022-11-20T13:49:53;3.00;;;2.40;;
12511;SDS011;6321;53.798;10.382;2022-11-20T13:57:35;3.57;;;2.50;;
12511;SDS011;6321;53.798;10.382;2022-11-20T14:00:14;3.67;;;2.53;;
12511;SDS011;6321;53.798;10.382;2022-11-20T14:02:40;2.97;;;2.53;;
12511;SDS011;6321;53.798;10.382;2022-11-20T14:05:13;3.03;;;2.73;;
12511;SDS011;6321;53.798;10.382;2022-11-20T14:07:42;2.33;;;2.13;;
12511;SDS011;6321;53.798;10.382;2022-11-20T14:10:29;2.27;;;2.03;;
12511;SDS011;6321;53.798;10.382;2022-11-20T14:12:54;3.60;;;2.40;;
12511;SDS011;6321;53.798;10.382;2022-11-20T14:15:30;3.70;;;2.50;;
12511;SDS011;6321;53.798;10.382;2022-11-20T14:17:57;3.33;;;2.83;;
12511;SDS011;6321;53.798;10.382;2022-11-20T14:20:24;2.50;;;2.30;;
12511;SDS011;6321;53.798;10.382;2022-11-20T14:22:52;3.03;;;2.10;;
12511;SDS011;6321;53.798;10.382;2022-11-20T14:25:19;2.93;;;2.67;;
12511;SDS011;6321;53.798;10.382;2022-11-20T14:27:50;3.33;;;2.30;;
12511;SDS011;6321;53.798;10.382;2022-11-20T14:30:17;2.13;;;1.93;;
12511;SDS011;6321;53.798;10.382;2022-11-20T14:32:44;4.00;;;2.03;;
12511;SDS011;6321;53.798;10.382;2022-11-20T14:35:13;2.60;;;2.40;;
12511;SDS011;6321;53.798;10.382;2022-11-20T14:37:43;2.50;;;2.20;;
12511;SDS011;6321;53.798;10.382;2022-11-20T14:40:22;3.10;;;2.80;;
12511;SDS011;6321;53.798;10.382;2022-11-20T14:42:49;2.60;;;2.40;;
12511;SDS011;6321;53.798;10.382;2022-11-20T14:45:18;2.63;;;2.30;;
12511;SDS011;6321;53.798;10.382;2022-11-20T14:47:44;2.50;;;2.30;;
12511;SDS011;6321;53.798;10.382;2022-11-20T14:50:15;3.80;;;2.80;;
12511;SDS011;6321;53.798;10.382;2022-11-20T14:52:49;4.63;;;3.10;;
12511;SDS011;6321;53.798;10.382;2022-11-20T14:55:24;3.80;;;2.90;;
12511;SDS011;6321;53.798;10.382;2022-11-20T14:57:54;4.10;;;3.03;;
12511;SDS011;6321;53.798;10.382;2022-11-20T15:00:21;3.70;;;2.93;;
12511;SDS011;6321;53.798;10.382;2022-11-20T15:02:48;4.53;;;3.27;;
12511;SDS011;6321;53.798;10.382;2022-11-20T15:05:15;4.80;;;3.40;;
12511;SDS011;6321;53.798;10.382;2022-11-20T15:07:42;6.60;;;3.60;;
12511;SDS011;6321;53.798;10.382;2022-11-20T15:12:40;3.27;;;2.80;;
12511;SDS011;6321;53.798;10.382;2022-11-20T15:15:11;3.73;;;3.03;;
12511;SDS011;6321;53.798;10.382;2022-11-20T15:17:37;6.33;;;3.23;;
12511;SDS011;6321;53.798;10.382;2022-11-20T15:20:09;4.10;;;2.93;;
12511;SDS011;6321;53.798;10.382;2022-11-20T15:22:37;4.73;;;2.77;;
12511;SDS011;6321;53.798;10.382;2022-11-20T15:25:08;3.53;;;2.70;;
12511;SDS011;6321;53.798;10.382;2022-11-20T15:27:34;2.90;;;2.60;;
12511;SDS011;6321;53.798;10.382;2022-11-20T15:29:59;2.97;;;2.67;;
12511;SDS011;6321;53.798;10.382;2022-11-20T15:32:25;3.33;;;2.70;;
12511;SDS011;6321;53.798;10.382;2022-11-20T15:34:51;5.20;;;3.03;;
12511;SDS011;6321;53.798;10.382;2022-11-20T15:37:17;3.43;;;2.80;;
12511;SDS011;6321;53.798;10.382;2022-11-20T15:39:43;5.33;;;2.87;;
12511;SDS011;6321;53.798;10.382;2022-11-20T15:42:09;6.30;;;3.70;;
12511;SDS011;6321;53.798;10.382;2022-11-20T15:44:35;5.80;;;3.77;;
12511;SDS011;6321;53.798;10.382;2022-11-20T15:47:01;5.57;;;4.57;;
12511;SDS011;6321;53.798;10.382;2022-11-20T15:49:27;8.50;;;5.60;;
12511;SDS011;6321;53.798;10.382;2022-11-20T15:51:52;8.87;;;5.30;;
12511;SDS011;6321;53.798;10.382;2022-11-20T15:54:20;10.13;;;5.47;;
12511;SDS011;6321;53.798;10.382;2022-11-20T15:56:46;5.60;;;4.37;;
12511;SDS011;6321;53.798;10.382;2022-11-20T15:59:12;5.40;;;4.43;;
12511;SDS011;6321;53.798;10.382;2022-11-20T16:01:41;7.03;;;4.50;;
12511;SDS011;6321;53.798;10.382;2022-11-20T16:04:11;9.87;;;5.47;;
12511;SDS011;6321;53.798;10.382;2022-11-20T16:06:38;7.50;;;4.37;;
12511;SDS011;6321;53.798;10.382;2022-11-20T16:09:03;4.73;;;4.17;;